createdAt,value
2023-03-11T00:01:44.301Z,89031.59
2023-03-11T00:04:11.188Z,89029.19
2023-03-11T00:06:38.029Z,89029.25
2023-03-11T00:09:05.192Z,89032.13
2023-03-11T00:11:32.295Z,89030.19
2023-03-11T00:13:59.211Z,89021.75
2023-03-11T00:16:26.251Z,89012.09
2023-03-11T00:18:53.163Z,89013.09
2023-03-11T00:21:20.399Z,89009.53
2023-03-11T00:23:47.742Z,89014.66
2023-03-11T00:26:14.697Z,89004.28
2023-03-11T00:28:41.533Z,89012.50
2023-03-11T00:31:08.530Z,89008.06
2023-03-11T00:33:35.401Z,89008.50
2023-03-11T00:36:02.316Z,88999.78
2023-03-11T00:38:29.262Z,88995.91
2023-03-11T00:40:56.100Z,88991.50
2023-03-11T00:43:23.004Z,88987.16
2023-03-11T00:45:49.940Z,88991.66
2023-03-11T00:48:16.898Z,88992.13
2023-03-11T00:50:44.194Z,88994.28
2023-03-11T00:53:12.013Z,89000.09
2023-03-11T00:55:38.837Z,89002.38
2023-03-11T00:58:07.008Z,88997.63
2023-03-11T01:00:34.628Z,88988.66
2023-03-11T01:03:01.522Z,88980.88
2023-03-11T01:05:31.453Z,88970.94
2023-03-11T01:07:59.249Z,88970.94
2023-03-11T01:10:27.435Z,88968.50
2023-03-11T01:12:54.386Z,88958.56
2023-03-11T01:15:34.218Z,88953.63
2023-03-11T01:18:01.552Z,88954.63
2023-03-11T01:20:28.827Z,88970.28
2023-03-11T01:22:55.885Z,88971.28
2023-03-11T01:25:24.354Z,88958.03
2023-03-11T01:27:51.600Z,88953.75
2023-03-11T01:30:22.717Z,88956.69
2023-03-11T01:32:51.297Z,88943.16
2023-03-11T01:35:20.570Z,88939.53
2023-03-11T01:37:48.051Z,88930.06
2023-03-11T01:40:19.740Z,88935.09
2023-03-11T01:42:47.072Z,88933.63
2023-03-11T01:45:43.255Z,88926.69
2023-03-11T01:48:11.022Z,88920.84
2023-03-11T01:50:45.089Z,88923.97
2023-03-11T01:53:14.189Z,88930.69
2023-03-11T01:55:41.371Z,88921.66
2023-03-11T01:58:12.074Z,88914.66
2023-03-11T02:00:39.134Z,88924.22
2023-03-11T02:03:25.784Z,88923.22
2023-03-11T02:05:54.304Z,88913.56
2023-03-11T02:08:21.496Z,88911.41
2023-03-11T02:10:51.888Z,88911.41
2023-03-11T02:13:19.741Z,88904.94
2023-03-11T02:15:46.731Z,88903.00
2023-03-11T02:18:14.947Z,88912.63
2023-03-11T02:20:52.533Z,88914.06
2023-03-11T02:23:23.288Z,88911.16
2023-03-11T02:26:02.123Z,88910.41
2023-03-11T02:28:32.232Z,88911.88
2023-03-11T02:30:59.290Z,88914.84
2023-03-11T02:33:31.247Z,88909.09
2023-03-11T02:35:58.876Z,88924.50
2023-03-11T02:38:25.766Z,88928.38
2023-03-11T02:41:00.952Z,88928.59
2023-03-11T02:43:39.952Z,88926.84
2023-03-11T02:46:08.460Z,88923.16
2023-03-11T02:48:36.757Z,88922.66
2023-03-11T02:51:08.996Z,88927.28
2023-03-11T02:53:41.757Z,88920.28
2023-03-11T02:56:08.664Z,88920.81
2023-03-11T02:58:35.571Z,88920.09
2023-03-11T03:01:02.709Z,88909.97
2023-03-11T03:03:29.511Z,88919.84
2023-03-11T03:05:56.949Z,88921.09
2023-03-11T03:08:23.849Z,88917.03
2023-03-11T03:10:50.709Z,88919.72
2023-03-11T03:13:17.851Z,88920.50
2023-03-11T03:15:47.588Z,88918.38
2023-03-11T03:18:14.477Z,88899.88
2023-03-11T03:20:41.326Z,88897.00
2023-03-11T03:23:08.440Z,88901.84
2023-03-11T03:25:38.225Z,88905.00
2023-03-11T03:28:05.286Z,88895.03
2023-03-11T03:30:32.487Z,88897.44
2023-03-11T03:32:59.393Z,88889.72
2023-03-11T03:35:26.915Z,88884.38
2023-03-11T03:37:53.888Z,88891.09
2023-03-11T03:40:21.395Z,88897.59
2023-03-11T03:42:48.455Z,88889.59
2023-03-11T03:45:15.350Z,88899.72
2023-03-11T03:47:42.236Z,88903.34
2023-03-11T03:50:10.721Z,88903.13
2023-03-11T03:52:38.603Z,88901.19
2023-03-11T03:55:06.863Z,88898.53
2023-03-11T03:57:33.804Z,88896.59
2023-03-11T04:00:00.655Z,88893.66
2023-03-11T04:02:27.955Z,88897.50
2023-03-11T04:04:54.826Z,88893.59
2023-03-11T04:07:21.700Z,88903.50
2023-03-11T04:09:49.430Z,88906.88
2023-03-11T04:12:17.033Z,88907.59
2023-03-11T04:14:44.535Z,88906.88
2023-03-11T04:17:12.613Z,88903.72
2023-03-11T04:19:39.740Z,88901.81
2023-03-11T04:22:06.801Z,88902.09
2023-03-11T04:24:33.616Z,88902.28
2023-03-11T04:27:00.748Z,88902.28
2023-03-11T04:29:27.796Z,88902.72
2023-03-11T04:31:54.635Z,88895.94
2023-03-11T04:34:21.517Z,88890.34
2023-03-11T04:36:51.388Z,88895.19
2023-03-11T04:39:18.229Z,88891.47
2023-03-11T04:41:45.090Z,88894.44
2023-03-11T04:44:11.908Z,88896.38
2023-03-11T04:46:38.912Z,88882.88
2023-03-11T04:49:06.010Z,88880.28
2023-03-11T04:51:32.931Z,88880.09
2023-03-11T04:53:59.802Z,88881.06
2023-03-11T04:56:26.680Z,88878.66
2023-03-11T04:58:53.564Z,88869.75
2023-03-11T05:01:20.415Z,88880.41
2023-03-11T05:03:47.256Z,88886.47
2023-03-11T05:06:14.231Z,88881.88
2023-03-11T05:08:41.322Z,88887.94
2023-03-11T05:11:08.138Z,88880.22
2023-03-11T05:13:35.636Z,88876.88
2023-03-11T05:16:02.602Z,88876.38
2023-03-11T05:18:29.483Z,88880.00
2023-03-11T05:20:56.420Z,88877.63
2023-03-11T05:23:23.458Z,88874.50
2023-03-11T05:25:50.318Z,88874.00
2023-03-11T05:28:17.347Z,88874.78
2023-03-11T05:30:44.157Z,88882.28
2023-03-11T05:33:11.006Z,88883.06
2023-03-11T05:35:38.027Z,88879.22
2023-03-11T05:38:04.944Z,88880.72
2023-03-11T05:40:31.818Z,88879.53
2023-03-11T05:42:58.821Z,88877.84
2023-03-11T05:45:25.876Z,88880.03
2023-03-11T05:47:55.075Z,88881.25
2023-03-11T05:50:22.233Z,88883.94
2023-03-11T05:52:49.035Z,88878.34
2023-03-11T05:55:15.982Z,88872.81
2023-03-11T05:57:42.900Z,88878.16
2023-03-11T06:00:10.911Z,88881.97
2023-03-11T06:02:39.858Z,88877.41
2023-03-11T06:05:08.669Z,88878.16
2023-03-11T06:07:36.015Z,88885.16
2023-03-11T06:10:04.138Z,88892.84
2023-03-11T06:12:31.089Z,88890.88
2023-03-11T06:14:57.898Z,88895.25
2023-03-11T06:17:24.721Z,88888.72
2023-03-11T06:19:51.589Z,88893.09
2023-03-11T06:22:18.463Z,88882.72
2023-03-11T06:24:45.346Z,88885.84
2023-03-11T06:27:12.225Z,88883.19
2023-03-11T06:29:39.023Z,88874.25
2023-03-11T06:32:06.483Z,88875.97
2023-03-11T06:34:33.540Z,88884.00
2023-03-11T06:37:00.406Z,88890.75
2023-03-11T06:39:27.296Z,88872.38
2023-03-11T06:41:54.301Z,88872.38
2023-03-11T06:44:21.272Z,88873.59
2023-03-11T06:46:48.157Z,88879.66
2023-03-11T06:49:15.100Z,88872.88
2023-03-11T06:51:41.929Z,88881.13
2023-03-11T06:54:10.587Z,88878.44
2023-03-11T06:56:37.480Z,88870.47
2023-03-11T06:59:04.339Z,88874.59
2023-03-11T07:01:31.208Z,88871.44
2023-03-11T07:03:58.227Z,88867.56
2023-03-11T07:06:31.014Z,88866.59
2023-03-11T07:08:57.936Z,88869.00
2023-03-11T07:11:27.453Z,88853.28
2023-03-11T07:13:54.964Z,88852.31
2023-03-11T07:16:28.119Z,88868.06
2023-03-11T07:18:59.601Z,88860.28
2023-03-11T07:21:27.403Z,88857.38
2023-03-11T07:23:56.412Z,88849.16
2023-03-11T07:26:23.986Z,88851.06
2023-03-11T07:28:51.104Z,88851.78
2023-03-11T07:31:22.678Z,88834.78
2023-03-11T07:33:50.256Z,88841.50
2023-03-11T07:36:20.426Z,88841.72
2023-03-11T07:38:47.493Z,88830.50
2023-03-11T07:41:16.172Z,88845.53
2023-03-11T07:43:43.849Z,88831.63
2023-03-11T07:46:16.442Z,88833.72
2023-03-11T07:48:43.393Z,88830.06
2023-03-11T07:51:16.843Z,88833.19
2023-03-11T07:53:44.064Z,88819.81
2023-03-11T07:56:13.017Z,88817.66
2023-03-11T07:58:40.659Z,88828.81
2023-03-11T08:01:10.219Z,88818.88
2023-03-11T08:03:38.171Z,88802.66
2023-03-11T08:06:26.456Z,88813.50
2023-03-11T08:08:53.308Z,88818.78
2023-03-11T08:11:20.710Z,88807.75
2023-03-11T08:13:48.206Z,88808.38
2023-03-11T08:16:18.028Z,88802.13
2023-03-11T08:18:45.925Z,88789.63
2023-03-11T08:21:15.106Z,88779.78
2023-03-11T08:23:42.258Z,88777.63
2023-03-11T08:26:11.900Z,88768.03
2023-03-11T08:28:39.060Z,88779.41
2023-03-11T08:31:16.723Z,88762.59
2023-03-11T08:33:45.448Z,88776.50
2023-03-11T08:36:13.180Z,88740.81
2023-03-11T08:38:40.180Z,88761.09
2023-03-11T08:41:07.601Z,88755.44
2023-03-11T08:43:35.213Z,88761.06
2023-03-11T08:46:04.807Z,88755.94
2023-03-11T08:48:31.717Z,88755.31
2023-03-11T08:50:58.795Z,88751.84
2023-03-11T08:53:26.053Z,88749.19
2023-03-11T08:55:53.420Z,88768.97
2023-03-11T08:58:20.804Z,88755.47
2023-03-11T09:00:48.074Z,88760.34
2023-03-11T09:03:15.020Z,88764.16
2023-03-11T09:05:41.945Z,88753.47
2023-03-11T09:08:08.774Z,88749.59
2023-03-11T09:10:36.099Z,88762.22
2023-03-11T09:13:02.979Z,88755.38
2023-03-11T09:15:29.929Z,88762.97
2023-03-11T09:17:57.035Z,88771.75
2023-03-11T09:20:23.984Z,88753.13
2023-03-11T09:22:50.794Z,88743.66
2023-03-11T09:25:17.728Z,88735.50
2023-03-11T09:27:44.599Z,88730.75
2023-03-11T09:30:11.948Z,88726.84
2023-03-11T09:32:38.843Z,88732.19
2023-03-11T09:35:06.214Z,88723.53
2023-03-11T09:37:33.052Z,88725.38
2023-03-11T09:40:00.055Z,88718.03
2023-03-11T09:42:33.106Z,88719.72
2023-03-11T09:45:06.870Z,88726.44
2023-03-11T09:48:07.889Z,88714.53
2023-03-11T09:50:40.531Z,88718.28
2023-03-11T09:53:46.179Z,88712.44
2023-03-11T09:56:20.782Z,88709.50
2023-03-11T09:58:51.138Z,88711.50
2023-03-11T10:01:40.687Z,88701.81
2023-03-11T10:04:21.954Z,88710.63
2023-03-11T10:06:49.266Z,88697.22
2023-03-11T10:09:36.547Z,88703.78
2023-03-11T10:12:34.958Z,88697.78
2023-03-11T10:15:13.238Z,88701.13
2023-03-11T10:17:53.328Z,88699.47
2023-03-11T10:20:38.303Z,88697.78
2023-03-11T10:23:25.244Z,88703.13
2023-03-11T10:26:08.111Z,88693.97
2023-03-11T10:28:47.838Z,88691.72
2023-03-11T10:31:28.144Z,88696.56
2023-03-11T10:34:04.754Z,88688.53
2023-03-11T10:36:41.060Z,88670.06
2023-03-11T10:39:11.763Z,88670.06
2023-03-11T10:41:44.096Z,88665.31
2023-03-11T10:44:19.054Z,88670.66
2023-03-11T10:46:46.018Z,88654.31
2023-03-11T10:49:17.258Z,88650.25
2023-03-11T10:51:54.356Z,88658.06
2023-03-11T10:54:31.433Z,88646.16
2023-03-11T10:57:07.392Z,88645.72
2023-03-11T10:59:46.088Z,88631.34
2023-03-11T11:02:31.797Z,88630.78
2023-03-11T11:05:07.446Z,88617.13
2023-03-11T11:07:38.995Z,88617.63
2023-03-11T11:10:26.492Z,88604.63
2023-03-11T11:12:56.460Z,88596.09
2023-03-11T11:15:27.368Z,88596.22
2023-03-11T11:17:57.512Z,88584.22
2023-03-11T11:20:25.629Z,88583.00
2023-03-11T11:22:58.725Z,88583.34
2023-03-11T11:25:33.383Z,88575.81
2023-03-11T11:28:03.385Z,88566.81
2023-03-11T11:30:30.283Z,88562.31
2023-03-11T11:33:17.234Z,88550.72
2023-03-11T11:35:51.592Z,88548.25
2023-03-11T11:38:18.762Z,88544.97
2023-03-11T11:40:46.133Z,88538.47
2023-03-11T11:43:19.067Z,88534.16
2023-03-11T11:46:06.674Z,88532.00
2023-03-11T11:49:08.912Z,88536.41
2023-03-11T11:51:41.549Z,88525.50
2023-03-11T11:54:38.883Z,88522.19
2023-03-11T11:57:15.085Z,88530.00
2023-03-11T11:59:45.899Z,88520.34
2023-03-11T12:02:31.934Z,88541.06
2023-03-11T12:05:22.686Z,88530.31
2023-03-11T12:08:07.507Z,88521.34
2023-03-11T12:11:06.574Z,88531.63
2023-03-11T12:14:07.492Z,88524.81
2023-03-11T12:16:34.549Z,88507.44
2023-03-11T12:19:20.841Z,88495.81
2023-03-11T12:21:59.775Z,88512.56
2023-03-11T12:24:26.514Z,88501.56
2023-03-11T12:26:55.000Z,88509.38
2023-03-11T12:29:28.754Z,88514.53
2023-03-11T12:31:57.554Z,88506.91
2023-03-11T12:34:24.871Z,88511.53
2023-03-11T12:36:53.158Z,88508.28
2023-03-11T12:39:34.280Z,88508.63
2023-03-11T12:42:21.674Z,88520.56
2023-03-11T12:44:50.043Z,88499.38
2023-03-11T12:47:25.763Z,88507.38
2023-03-11T12:50:16.209Z,88510.38
2023-03-11T12:52:54.450Z,88497.13
2023-03-11T12:55:29.296Z,88512.84
2023-03-11T12:58:05.901Z,88492.44
2023-03-11T13:01:16.161Z,88486.69
2023-03-11T13:03:50.337Z,88487.19
2023-03-11T13:06:17.233Z,88490.25
2023-03-11T13:08:50.662Z,88483.25
2023-03-11T13:11:32.856Z,88496.84
2023-03-11T13:14:24.072Z,88495.50
2023-03-11T13:16:51.137Z,88476.19
2023-03-11T13:19:27.349Z,88483.16
2023-03-11T13:21:55.762Z,88485.31
2023-03-11T13:24:22.707Z,88471.56
2023-03-11T13:27:20.996Z,88460.84
2023-03-11T13:30:08.427Z,88460.44
2023-03-11T13:32:35.269Z,88463.50
2023-03-11T13:35:29.101Z,88454.78
2023-03-11T13:38:10.829Z,88455.69
2023-03-11T13:40:40.796Z,88440.91
2023-03-11T13:43:22.534Z,88443.59
2023-03-11T13:45:54.321Z,88436.16
2023-03-11T13:48:39.267Z,88444.09
2023-03-11T13:51:16.781Z,88434.13
2023-03-11T13:53:47.442Z,88452.19
2023-03-11T13:56:19.077Z,88441.91
2023-03-11T13:58:45.944Z,88423.22
2023-03-11T14:01:16.812Z,88422.59
2023-03-11T14:03:46.095Z,88422.31
2023-03-11T14:06:24.686Z,88426.31
2023-03-11T14:08:56.739Z,88430.31
2023-03-11T14:11:29.861Z,88424.31
2023-03-11T14:13:56.667Z,88427.00
2023-03-11T14:16:32.243Z,88422.16
2023-03-11T14:19:16.771Z,88422.59
2023-03-11T14:21:45.691Z,88425.34
2023-03-11T14:24:23.206Z,88423.81
2023-03-11T14:26:54.598Z,88407.97
2023-03-11T14:29:30.431Z,88419.91
2023-03-11T14:31:57.486Z,88417.22
2023-03-11T14:34:27.031Z,88415.38
2023-03-11T14:36:57.031Z,88395.97
2023-03-11T14:39:39.104Z,88414.03
2023-03-11T14:42:21.838Z,88411.47
2023-03-11T14:44:56.394Z,88417.47
2023-03-11T14:47:39.362Z,88406.88
2023-03-11T14:50:11.235Z,88410.06
2023-03-11T14:52:45.781Z,88397.84
2023-03-11T14:55:20.487Z,88391.97
2023-03-11T14:58:00.561Z,88379.53
2023-03-11T15:00:36.716Z,88387.44
2023-03-11T15:03:06.869Z,88385.59
2023-03-11T15:05:35.922Z,88375.19
2023-03-11T15:08:05.966Z,88374.91
2023-03-11T15:10:33.226Z,88380.38
2023-03-11T15:13:15.077Z,88369.56
2023-03-11T15:15:55.466Z,88374.59
2023-03-11T15:18:30.770Z,88379.72
2023-03-11T15:21:15.464Z,88365.94
2023-03-11T15:23:48.546Z,88356.59
2023-03-11T15:26:30.862Z,88359.88
2023-03-11T15:29:00.910Z,88348.28
2023-03-11T15:31:34.804Z,88343.66
2023-03-11T15:34:10.621Z,88350.31
2023-03-11T15:36:40.202Z,88338.00
2023-03-11T15:39:15.188Z,88341.00
2023-03-11T15:41:43.346Z,88344.88
2023-03-11T15:44:35.572Z,88342.09
2023-03-11T15:47:03.672Z,88347.88
2023-03-11T15:49:30.935Z,88360.41
2023-03-11T15:52:01.952Z,88346.94
2023-03-11T15:54:29.496Z,88339.03
2023-03-11T15:57:00.928Z,88351.38
2023-03-11T15:59:29.226Z,88366.16
2023-03-11T16:01:56.351Z,88361.97
2023-03-11T16:04:24.328Z,88373.25
2023-03-11T16:07:02.840Z,88356.38
2023-03-11T16:09:32.157Z,88367.91
2023-03-11T16:11:59.093Z,88358.56
2023-03-11T16:14:26.071Z,88362.56
2023-03-11T16:16:53.054Z,88364.84
2023-03-11T16:19:20.063Z,88371.00
2023-03-11T16:21:49.952Z,88384.88
2023-03-11T16:24:22.825Z,88352.72
2023-03-11T16:26:50.611Z,88356.91
2023-03-11T16:29:19.738Z,88395.19
2023-03-11T16:31:47.408Z,88359.16
2023-03-11T16:34:17.108Z,88372.22
2023-03-11T16:36:43.911Z,88360.19
2023-03-11T16:39:10.774Z,88403.25
2023-03-11T16:41:43.538Z,88387.13
2023-03-11T16:44:11.004Z,88391.75
2023-03-11T16:46:37.945Z,88405.31
2023-03-11T16:49:05.331Z,88412.09
2023-03-11T16:51:33.118Z,88423.09
2023-03-11T16:54:00.237Z,88420.53
2023-03-11T16:56:27.432Z,88416.41
2023-03-11T16:58:54.391Z,88434.28
2023-03-11T17:01:21.814Z,88440.66
2023-03-11T17:03:50.354Z,88453.28
2023-03-11T17:06:17.883Z,88448.75
2023-03-11T17:08:44.966Z,88471.03
2023-03-11T17:11:22.886Z,88469.41
2023-03-11T17:13:54.237Z,88473.00
2023-03-11T17:16:22.431Z,88482.66
2023-03-11T17:18:49.453Z,88469.19
2023-03-11T17:21:17.310Z,88487.66
2023-03-11T17:23:44.400Z,88496.06
2023-03-11T17:26:14.160Z,88506.19
2023-03-11T17:28:41.752Z,88522.94
2023-03-11T17:31:16.503Z,88516.28
2023-03-11T17:33:44.413Z,88497.53
2023-03-11T17:36:15.488Z,88526.22
2023-03-11T17:38:46.648Z,88515.69
2023-03-11T17:41:15.797Z,88491.13
2023-03-11T17:43:43.400Z,88503.97
2023-03-11T17:46:12.034Z,88496.78
2023-03-11T17:48:38.842Z,88500.44
2023-03-11T17:51:17.524Z,88497.91
2023-03-11T17:53:46.209Z,88499.34
2023-03-11T17:56:15.491Z,88508.03
2023-03-11T17:58:42.485Z,88514.09
2023-03-11T18:01:14.408Z,88507.16
2023-03-11T18:03:41.410Z,88527.03
2023-03-11T18:06:09.161Z,88511.53
2023-03-11T18:08:36.308Z,88518.03
2023-03-11T18:11:07.623Z,88537.66
2023-03-11T18:13:35.922Z,88535.28
2023-03-11T18:16:06.282Z,88566.97
2023-03-11T18:18:34.771Z,88578.81
2023-03-11T18:21:12.483Z,88591.94
2023-03-11T18:23:39.583Z,88598.50
2023-03-11T18:26:08.704Z,88624.91
2023-03-11T18:28:35.979Z,88621.47
2023-03-11T18:31:20.836Z,88628.66
2023-03-11T18:33:50.881Z,88633.47
2023-03-11T18:36:23.362Z,88640.41
2023-03-11T18:38:52.223Z,88646.19
2023-03-11T18:41:22.140Z,88653.16
2023-03-11T18:43:54.070Z,88658.03
2023-03-11T18:46:21.355Z,88663.16
2023-03-11T18:48:48.387Z,88673.78
2023-03-11T18:51:15.509Z,88678.56
2023-03-11T18:53:43.038Z,88687.28
2023-03-11T18:56:13.850Z,88680.06
2023-03-11T18:58:40.966Z,88675.38
2023-03-11T19:01:13.798Z,88683.75
2023-03-11T19:03:45.106Z,88685.16
2023-03-11T19:06:13.269Z,88668.22
2023-03-11T19:08:40.836Z,88673.44
2023-03-11T19:11:09.689Z,88695.06
2023-03-11T19:13:46.166Z,88699.28
2023-03-11T19:16:15.743Z,88694.97
2023-03-11T19:18:42.534Z,88669.28
2023-03-11T19:21:12.094Z,88685.81
2023-03-11T19:23:39.111Z,88674.91
2023-03-11T19:26:07.272Z,88677.31
2023-03-11T19:28:34.636Z,88665.00
2023-03-11T19:31:01.874Z,88676.72
2023-03-11T19:33:29.269Z,88671.38
2023-03-11T19:35:59.485Z,88686.75
2023-03-11T19:38:27.392Z,88676.41
2023-03-11T19:41:09.027Z,88667.28
2023-03-11T19:43:36.755Z,88642.03
2023-03-11T19:46:05.332Z,88657.91
2023-03-11T19:48:32.513Z,88654.28
2023-03-11T19:50:59.940Z,88649.97
2023-03-11T19:53:28.478Z,88644.94
2023-03-11T19:55:57.297Z,88652.38
2023-03-11T19:58:30.280Z,88647.16
2023-03-11T20:00:58.633Z,88658.31
2023-03-11T20:03:26.316Z,88654.28
2023-03-11T20:05:54.516Z,88661.00
2023-03-11T20:08:22.643Z,88672.09
2023-03-11T20:10:53.850Z,88689.72
2023-03-11T20:13:25.225Z,88704.59
2023-03-11T20:15:52.225Z,88696.41
2023-03-11T20:18:19.332Z,88696.63
2023-03-11T20:20:46.966Z,88681.16
2023-03-11T20:23:14.122Z,88664.28
2023-03-11T20:25:42.223Z,88653.97
2023-03-11T20:28:10.940Z,88657.00
2023-03-11T20:30:39.397Z,88644.00
2023-03-11T20:33:07.998Z,88639.44
2023-03-11T20:35:35.354Z,88642.09
2023-03-11T20:38:02.639Z,88634.34
2023-03-11T20:40:29.793Z,88636.06
2023-03-11T20:42:56.817Z,88639.00
2023-03-11T20:45:23.718Z,88641.94
2023-03-11T20:47:51.422Z,88632.31
2023-03-11T20:50:18.427Z,88641.69
2023-03-11T20:52:45.485Z,88630.91
2023-03-11T20:55:13.117Z,88632.88
2023-03-11T20:57:40.631Z,88612.84
2023-03-11T21:00:11.983Z,88596.78
2023-03-11T21:02:43.251Z,88591.03
2023-03-11T21:05:13.575Z,88577.06
2023-03-11T21:07:40.635Z,88580.91
2023-03-11T21:10:12.275Z,88578.75
2023-03-11T21:12:39.276Z,88583.56
2023-03-11T21:15:08.263Z,88572.97
2023-03-11T21:17:36.241Z,88579.00
2023-03-11T21:20:04.860Z,88567.19
2023-03-11T21:22:32.535Z,88564.06
2023-03-11T21:25:02.385Z,88560.03
2023-03-11T21:27:29.475Z,88565.31
2023-03-11T21:29:57.916Z,88566.53
2023-03-11T21:32:27.548Z,88554.75
2023-03-11T21:34:59.503Z,88535.53
2023-03-11T21:37:27.521Z,88540.59
2023-03-11T21:39:54.890Z,88533.63
2023-03-11T21:42:22.451Z,88533.19
2023-03-11T21:44:49.606Z,88528.59
2023-03-11T21:47:17.777Z,88520.16
2023-03-11T21:49:44.798Z,88517.03
2023-03-11T21:52:13.370Z,88526.09
2023-03-11T21:54:40.472Z,88511.78
2023-03-11T21:57:07.292Z,88520.78
2023-03-11T21:59:34.506Z,88513.81
2023-03-11T22:02:01.533Z,88509.94
2023-03-11T22:04:29.505Z,88505.59
2023-03-11T22:06:57.401Z,88503.91
2023-03-11T22:09:24.527Z,88506.31
2023-03-11T22:11:51.313Z,88497.63
2023-03-11T22:14:18.388Z,88507.53
2023-03-11T22:16:45.425Z,88509.25
2023-03-11T22:19:12.343Z,88499.13
2023-03-11T22:21:39.397Z,88506.34
2023-03-11T22:24:06.737Z,88500.31
2023-03-11T22:26:33.645Z,88503.66
2023-03-11T22:29:03.112Z,88498.84
2023-03-11T22:31:30.831Z,88505.13
2023-03-11T22:33:57.954Z,88495.47
2023-03-11T22:36:25.033Z,88495.72
2023-03-11T22:38:51.842Z,88495.47
2023-03-11T22:41:18.740Z,88507.78
2023-03-11T22:43:46.219Z,88511.38
2023-03-11T22:46:13.602Z,88522.00
2023-03-11T22:48:40.591Z,88528.75
2023-03-11T22:51:07.495Z,88529.00
2023-03-11T22:53:34.367Z,88528.28
2023-03-11T22:56:06.102Z,88533.59
2023-03-11T22:58:32.982Z,88532.63
2023-03-11T23:00:59.784Z,88533.09
2023-03-11T23:03:27.031Z,88526.84
2023-03-11T23:05:54.127Z,88540.09
2023-03-11T23:08:20.921Z,88527.06
2023-03-11T23:10:48.019Z,88537.44
2023-03-11T23:13:15.697Z,88538.16
2023-03-11T23:15:47.854Z,88529.72
2023-03-11T23:18:15.564Z,88542.75
2023-03-11T23:20:43.718Z,88540.56
2023-03-11T23:23:11.798Z,88533.34
2023-03-11T23:25:40.248Z,88527.78
2023-03-11T23:28:07.753Z,88523.66
2023-03-11T23:30:34.857Z,88515.47
2023-03-11T23:33:01.924Z,88503.19
2023-03-11T23:35:28.942Z,88501.72
2023-03-11T23:37:55.815Z,88503.91
2023-03-11T23:40:22.661Z,88510.19
2023-03-11T23:42:49.605Z,88514.53
2023-03-11T23:45:16.854Z,88507.06
2023-03-11T23:47:43.684Z,88505.13
2023-03-11T23:50:11.066Z,88503.25
2023-03-11T23:52:37.963Z,88496.00
2023-03-11T23:55:05.169Z,88499.84
2023-03-11T23:57:35.309Z,88501.06
